sensor_id;sensor_type;location;lat;lon;timestamp;temperature;humidity
51579;DHT22;47998;53.242;6.386;2024-02-23T00:00:27;3.70;99.90
51579;DHT22;47998;53.242;6.386;2024-02-23T00:02:53;3.70;99.90
51579;DHT22;47998;53.242;6.386;2024-02-23T00:05:22;3.60;99.90
51579;DHT22;47998;53.242;6.386;2024-02-23T00:07:47;3.60;99.90
51579;DHT22;47998;53.242;6.386;2024-02-23T00:10:13;3.60;99.90
51579;DHT22;47998;53.242;6.386;2024-02-23T00:12:39;3.60;99.90
51579;DHT22;47998;53.242;6.386;2024-02-23T00:15:05;3.70;99.90
51579;DHT22;47998;53.242;6.386;2024-02-23T00:17:31;3.60;99.90
51579;DHT22;47998;53.242;6.386;2024-02-23T00:19:56;3.70;99.90
51579;DHT22;47998;53.242;6.386;2024-02-23T00:22:22;3.80;99.90
51579;DHT22;47998;53.242;6.386;2024-02-23T00:24:48;3.80;99.90
51579;DHT22;47998;53.242;6.386;2024-02-23T00:27:13;3.90;99.90
51579;DHT22;47998;53.242;6.386;2024-02-23T00:29:39;3.80;99.90
51579;DHT22;47998;53.242;6.386;2024-02-23T00:32:06;3.90;99.90
51579;DHT22;47998;53.242;6.386;2024-02-23T00:34:32;3.90;99.90
51579;DHT22;47998;53.242;6.386;2024-02-23T00:36:58;3.90;99.90
51579;DHT22;47998;53.242;6.386;2024-02-23T00:39:23;4.00;99.90
51579;DHT22;47998;53.242;6.386;2024-02-23T00:41:49;4.10;99.90
51579;DHT22;47998;53.242;6.386;2024-02-23T00:44:15;4.20;99.90
51579;DHT22;47998;53.242;6.386;2024-02-23T00:46:40;4.30;99.90
51579;DHT22;47998;53.242;6.386;2024-02-23T00:49:06;4.30;99.90
51579;DHT22;47998;53.242;6.386;2024-02-23T00:51:32;4.30;99.90
51579;DHT22;47998;53.242;6.386;2024-02-23T00:53:58;4.30;99.90
51579;DHT22;47998;53.242;6.386;2024-02-23T00:56:23;4.30;99.90
51579;DHT22;47998;53.242;6.386;2024-02-23T00:58:50;4.30;99.90
51579;DHT22;47998;53.242;6.386;2024-02-23T01:01:16;4.30;99.90
51579;DHT22;47998;53.242;6.386;2024-02-23T01:03:42;4.30;99.90
51579;DHT22;47998;53.242;6.386;2024-02-23T01:06:08;4.30;99.90
51579;DHT22;47998;53.242;6.386;2024-02-23T01:08:33;4.20;99.90
51579;DHT22;47998;53.242;6.386;2024-02-23T01:11:00;4.20;99.90
51579;DHT22;47998;53.242;6.386;2024-02-23T01:13:25;4.30;99.90
51579;DHT22;47998;53.242;6.386;2024-02-23T01:15:51;4.30;99.90
51579;DHT22;47998;53.242;6.386;2024-02-23T01:18:19;4.30;99.90
51579;DHT22;47998;53.242;6.386;2024-02-23T01:20:45;4.50;99.90
51579;DHT22;47998;53.242;6.386;2024-02-23T01:23:11;4.60;99.90
51579;DHT22;47998;53.242;6.386;2024-02-23T01:25:36;4.60;99.90
51579;DHT22;47998;53.242;6.386;2024-02-23T01:28:03;4.70;99.90
51579;DHT22;47998;53.242;6.386;2024-02-23T01:30:29;4.70;99.90
51579;DHT22;47998;53.242;6.386;2024-02-23T01:32:55;4.70;99.90
51579;DHT22;47998;53.242;6.386;2024-02-23T01:35:20;4.70;99.90
51579;DHT22;47998;53.242;6.386;2024-02-23T01:37:46;4.60;99.90
51579;DHT22;47998;53.242;6.386;2024-02-23T01:40:12;4.60;99.90
51579;DHT22;47998;53.242;6.386;2024-02-23T01:42:38;4.50;99.90
51579;DHT22;47998;53.242;6.386;2024-02-23T01:45:04;4.50;99.90
51579;DHT22;47998;53.242;6.386;2024-02-23T01:47:30;4.40;99.90
51579;DHT22;47998;53.242;6.386;2024-02-23T01:49:58;4.40;99.90
51579;DHT22;47998;53.242;6.386;2024-02-23T01:52:24;4.40;99.90
51579;DHT22;47998;53.242;6.386;2024-02-23T01:54:50;4.60;99.90
51579;DHT22;47998;53.242;6.386;2024-02-23T01:57:16;4.70;99.90
51579;DHT22;47998;53.242;6.386;2024-02-23T01:59:42;4.80;99.90
51579;DHT22;47998;53.242;6.386;2024-02-23T02:02:08;4.90;99.90
51579;DHT22;47998;53.242;6.386;2024-02-23T02:04:34;5.00;99.90
51579;DHT22;47998;53.242;6.386;2024-02-23T02:07:00;5.10;99.90
51579;DHT22;47998;53.242;6.386;2024-02-23T02:09:27;5.40;99.90
51579;DHT22;47998;53.242;6.386;2024-02-23T02:11:52;5.10;99.90
51579;DHT22;47998;53.242;6.386;2024-02-23T02:14:18;5.10;99.90
51579;DHT22;47998;53.242;6.386;2024-02-23T02:16:44;5.10;99.90
51579;DHT22;47998;53.242;6.386;2024-02-23T02:19:14;5.10;99.90
51579;DHT22;47998;53.242;6.386;2024-02-23T02:21:41;5.10;99.90
51579;DHT22;47998;53.242;6.386;2024-02-23T02:24:07;5.10;99.90
51579;DHT22;47998;53.242;6.386;2024-02-23T02:26:32;5.20;99.90
51579;DHT22;47998;53.242;6.386;2024-02-23T02:28:58;5.30;99.90
51579;DHT22;47998;53.242;6.386;2024-02-23T02:31:24;5.30;99.90
51579;DHT22;47998;53.242;6.386;2024-02-23T02:33:50;5.30;99.90
51579;DHT22;47998;53.242;6.386;2024-02-23T02:36:15;5.40;99.90
51579;DHT22;47998;53.242;6.386;2024-02-23T02:38:41;5.40;99.90
51579;DHT22;47998;53.242;6.386;2024-02-23T02:41:08;5.30;99.90
51579;DHT22;47998;53.242;6.386;2024-02-23T02:43:33;5.30;99.90
51579;DHT22;47998;53.242;6.386;2024-02-23T02:45:59;5.20;99.90
51579;DHT22;47998;53.242;6.386;2024-02-23T02:48:25;5.30;99.90
51579;DHT22;47998;53.242;6.386;2024-02-23T02:50:51;5.30;99.90
51579;DHT22;47998;53.242;6.386;2024-02-23T02:53:17;5.20;99.90
51579;DHT22;47998;53.242;6.386;2024-02-23T02:55:44;5.20;99.90
51579;DHT22;47998;53.242;6.386;2024-02-23T02:58:13;5.20;99.90
51579;DHT22;47998;53.242;6.386;2024-02-23T03:00:40;5.20;99.90
51579;DHT22;47998;53.242;6.386;2024-02-23T03:03:06;5.20;99.90
51579;DHT22;47998;53.242;6.386;2024-02-23T03:05:31;5.10;99.90
51579;DHT22;47998;53.242;6.386;2024-02-23T03:07:57;5.20;99.90
51579;DHT22;47998;53.242;6.386;2024-02-23T03:10:23;5.10;99.90
51579;DHT22;47998;53.242;6.386;2024-02-23T03:12:49;5.00;99.90
51579;DHT22;47998;53.242;6.386;2024-02-23T03:15:14;4.50;99.90
51579;DHT22;47998;53.242;6.386;2024-02-23T03:17:40;4.30;99.90
51579;DHT22;47998;53.242;6.386;2024-02-23T03:20:06;4.20;99.90
51579;DHT22;47998;53.242;6.386;2024-02-23T03:22:37;4.20;99.90
51579;DHT22;47998;53.242;6.386;2024-02-23T03:25:03;4.40;99.90
51579;DHT22;47998;53.242;6.386;2024-02-23T03:27:38;4.50;99.90
51579;DHT22;47998;53.242;6.386;2024-02-23T03:30:04;4.50;99.90
51579;DHT22;47998;53.242;6.386;2024-02-23T03:32:31;4.60;99.90
51579;DHT22;47998;53.242;6.386;2024-02-23T03:35:05;4.70;99.90
51579;DHT22;47998;53.242;6.386;2024-02-23T03:37:31;4.80;99.90
51579;DHT22;47998;53.242;6.386;2024-02-23T03:39:57;4.80;99.90
51579;DHT22;47998;53.242;6.386;2024-02-23T03:42:23;4.80;99.90
51579;DHT22;47998;53.242;6.386;2024-02-23T03:44:49;4.90;99.90
51579;DHT22;47998;53.242;6.386;2024-02-23T03:47:14;4.90;99.90
51579;DHT22;47998;53.242;6.386;2024-02-23T03:49:40;4.80;99.90
51579;DHT22;47998;53.242;6.386;2024-02-23T03:52:06;4.90;99.90
51579;DHT22;47998;53.242;6.386;2024-02-23T03:54:32;4.90;99.90
51579;DHT22;47998;53.242;6.386;2024-02-23T03:56:58;4.90;99.90
51579;DHT22;47998;53.242;6.386;2024-02-23T03:59:24;4.80;99.90
51579;DHT22;47998;53.242;6.386;2024-02-23T04:01:49;4.90;99.90
51579;DHT22;47998;53.242;6.386;2024-02-23T04:04:15;4.80;99.90
51579;DHT22;47998;53.242;6.386;2024-02-23T04:06:41;4.80;99.90
51579;DHT22;47998;53.242;6.386;2024-02-23T04:09:07;4.80;99.90
51579;DHT22;47998;53.242;6.386;2024-02-23T04:11:34;4.80;99.90
51579;DHT22;47998;53.242;6.386;2024-02-23T04:14:00;4.70;99.90
51579;DHT22;47998;53.242;6.386;2024-02-23T04:16:26;4.60;99.90
51579;DHT22;47998;53.242;6.386;2024-02-23T04:18:53;4.60;99.90
51579;DHT22;47998;53.242;6.386;2024-02-23T04:21:19;4.60;99.90
51579;DHT22;47998;53.242;6.386;2024-02-23T04:23:45;4.80;99.90
51579;DHT22;47998;53.242;6.386;2024-02-23T04:26:10;4.60;99.90
51579;DHT22;47998;53.242;6.386;2024-02-23T04:28:39;4.70;99.90
51579;DHT22;47998;53.242;6.386;2024-02-23T04:31:05;4.70;99.90
51579;DHT22;47998;53.242;6.386;2024-02-23T04:33:31;4.60;99.90
51579;DHT22;47998;53.242;6.386;2024-02-23T04:35:57;4.70;99.90
51579;DHT22;47998;53.242;6.386;2024-02-23T04:38:23;4.60;99.90
51579;DHT22;47998;53.242;6.386;2024-02-23T04:40:48;4.50;99.90
51579;DHT22;47998;53.242;6.386;2024-02-23T04:43:14;4.40;99.90
51579;DHT22;47998;53.242;6.386;2024-02-23T04:45:40;4.50;99.90
51579;DHT22;47998;53.242;6.386;2024-02-23T04:48:06;4.40;99.90
51579;DHT22;47998;53.242;6.386;2024-02-23T04:50:32;4.30;99.90
51579;DHT22;47998;53.242;6.386;2024-02-23T04:52:57;4.40;99.90
51579;DHT22;47998;53.242;6.386;2024-02-23T04:55:23;4.30;99.90
51579;DHT22;47998;53.242;6.386;2024-02-23T04:57:49;4.20;99.90
51579;DHT22;47998;53.242;6.386;2024-02-23T05:00:14;4.30;99.90
51579;DHT22;47998;53.242;6.386;2024-02-23T05:02:40;4.40;99.90
51579;DHT22;47998;53.242;6.386;2024-02-23T05:05:06;4.40;99.90
51579;DHT22;47998;53.242;6.386;2024-02-23T05:07:34;4.40;99.90
51579;DHT22;47998;53.242;6.386;2024-02-23T05:09:59;4.40;99.90
51579;DHT22;47998;53.242;6.386;2024-02-23T05:12:25;4.40;99.90
51579;DHT22;47998;53.242;6.386;2024-02-23T05:14:51;4.50;99.90
51579;DHT22;47998;53.242;6.386;2024-02-23T05:17:17;4.50;99.90
51579;DHT22;47998;53.242;6.386;2024-02-23T05:19:43;4.50;99.90
51579;DHT22;47998;53.242;6.386;2024-02-23T05:22:09;4.50;99.90
51579;DHT22;47998;53.242;6.386;2024-02-23T05:24:34;4.40;99.90
51579;DHT22;47998;53.242;6.386;2024-02-23T05:27:00;4.40;99.90
51579;DHT22;47998;53.242;6.386;2024-02-23T05:29:28;4.40;99.90
51579;DHT22;47998;53.242;6.386;2024-02-23T05:31:54;4.40;99.90
51579;DHT22;47998;53.242;6.386;2024-02-23T05:34:20;4.30;99.90
51579;DHT22;47998;53.242;6.386;2024-02-23T05:36:47;4.40;99.90
51579;DHT22;47998;53.242;6.386;2024-02-23T05:39:13;4.50;99.90
51579;DHT22;47998;53.242;6.386;2024-02-23T05:41:41;4.40;99.90
51579;DHT22;47998;53.242;6.386;2024-02-23T05:44:07;4.30;99.90
51579;DHT22;47998;53.242;6.386;2024-02-23T05:46:34;4.20;99.90
51579;DHT22;47998;53.242;6.386;2024-02-23T05:49:00;4.00;99.90
51579;DHT22;47998;53.242;6.386;2024-02-23T05:51:26;3.90;99.90
51579;DHT22;47998;53.242;6.386;2024-02-23T05:53:51;3.80;99.90
51579;DHT22;47998;53.242;6.386;2024-02-23T05:56:17;3.80;99.90
51579;DHT22;47998;53.242;6.386;2024-02-23T05:58:43;3.80;99.90
51579;DHT22;47998;53.242;6.386;2024-02-23T06:01:09;3.80;99.90
51579;DHT22;47998;53.242;6.386;2024-02-23T06:03:35;4.00;99.90
51579;DHT22;47998;53.242;6.386;2024-02-23T06:06:00;4.10;99.90
51579;DHT22;47998;53.242;6.386;2024-02-23T06:08:26;4.20;99.90
51579;DHT22;47998;53.242;6.386;2024-02-23T06:10:52;4.30;99.90
51579;DHT22;47998;53.242;6.386;2024-02-23T06:13:17;4.10;99.90
51579;DHT22;47998;53.242;6.386;2024-02-23T06:15:43;4.00;99.90
51579;DHT22;47998;53.242;6.386;2024-02-23T06:18:09;4.10;99.90
51579;DHT22;47998;53.242;6.386;2024-02-23T06:20:34;4.10;99.90
51579;DHT22;47998;53.242;6.386;2024-02-23T06:23:00;4.00;99.90
51579;DHT22;47998;53.242;6.386;2024-02-23T06:25:26;4.00;99.90
51579;DHT22;47998;53.242;6.386;2024-02-23T06:27:52;3.90;99.90
51579;DHT22;47998;53.242;6.386;2024-02-23T06:30:17;3.90;99.90
51579;DHT22;47998;53.242;6.386;2024-02-23T06:32:43;3.90;99.90
51579;DHT22;47998;53.242;6.386;2024-02-23T06:35:11;4.00;99.90
51579;DHT22;47998;53.242;6.386;2024-02-23T06:37:37;4.00;99.90
51579;DHT22;47998;53.242;6.386;2024-02-23T06:40:03;4.10;99.90
51579;DHT22;47998;53.242;6.386;2024-02-23T06:42:29;4.10;99.90
51579;DHT22;47998;53.242;6.386;2024-02-23T06:44:55;4.10;99.90
51579;DHT22;47998;53.242;6.386;2024-02-23T06:47:21;4.10;99.90
51579;DHT22;47998;53.242;6.386;2024-02-23T06:49:47;4.20;99.90
51579;DHT22;47998;53.242;6.386;2024-02-23T06:52:13;4.20;99.90
51579;DHT22;47998;53.242;6.386;2024-02-23T06:54:39;4.30;99.90
51579;DHT22;47998;53.242;6.386;2024-02-23T06:57:05;4.30;99.90
51579;DHT22;47998;53.242;6.386;2024-02-23T06:59:30;4.30;99.90
51579;DHT22;47998;53.242;6.386;2024-02-23T07:01:57;4.30;99.90
51579;DHT22;47998;53.242;6.386;2024-02-23T07:04:23;4.20;99.90
51579;DHT22;47998;53.242;6.386;2024-02-23T07:06:49;4.10;99.90
51579;DHT22;47998;53.242;6.386;2024-02-23T07:09:15;4.00;99.90
51579;DHT22;47998;53.242;6.386;2024-02-23T07:11:40;4.00;99.90
51579;DHT22;47998;53.242;6.386;2024-02-23T07:14:09;4.00;99.90
51579;DHT22;47998;53.242;6.386;2024-02-23T07:16:38;4.00;99.90
51579;DHT22;47998;53.242;6.386;2024-02-23T07:19:07;4.00;99.90
51579;DHT22;47998;53.242;6.386;2024-02-23T07:21:33;3.90;99.90
51579;DHT22;47998;53.242;6.386;2024-02-23T07:23:59;4.00;99.90
51579;DHT22;47998;53.242;6.386;2024-02-23T07:26:26;4.10;99.90
51579;DHT22;47998;53.242;6.386;2024-02-23T07:28:53;4.20;99.90
51579;DHT22;47998;53.242;6.386;2024-02-23T07:31:19;4.20;99.90
51579;DHT22;47998;53.242;6.386;2024-02-23T07:33:45;4.30;99.90
51579;DHT22;47998;53.242;6.386;2024-02-23T07:36:14;4.40;99.90
51579;DHT22;47998;53.242;6.386;2024-02-23T07:38:40;4.50;99.90
51579;DHT22;47998;53.242;6.386;2024-02-23T07:41:06;4.50;99.90
51579;DHT22;47998;53.242;6.386;2024-02-23T07:43:31;4.60;99.90
51579;DHT22;47998;53.242;6.386;2024-02-23T07:45:57;4.60;99.90
51579;DHT22;47998;53.242;6.386;2024-02-23T07:48:23;4.60;99.90
51579;DHT22;47998;53.242;6.386;2024-02-23T07:50:48;4.60;99.90
51579;DHT22;47998;53.242;6.386;2024-02-23T07:53:14;4.70;99.90
51579;DHT22;47998;53.242;6.386;2024-02-23T07:55:40;4.70;99.90
51579;DHT22;47998;53.242;6.386;2024-02-23T07:58:06;4.80;99.90
51579;DHT22;47998;53.242;6.386;2024-02-23T08:00:32;4.90;99.90
51579;DHT22;47998;53.242;6.386;2024-02-23T08:02:57;5.00;99.90
51579;DHT22;47998;53.242;6.386;2024-02-23T08:05:24;5.00;99.90
51579;DHT22;47998;53.242;6.386;2024-02-23T08:07:50;5.00;99.90
51579;DHT22;47998;53.242;6.386;2024-02-23T08:10:16;5.00;99.90
51579;DHT22;47998;53.242;6.386;2024-02-23T08:12:41;5.10;99.90
51579;DHT22;47998;53.242;6.386;2024-02-23T08:15:07;5.00;99.90
51579;DHT22;47998;53.242;6.386;2024-02-23T08:17:33;4.90;99.90
51579;DHT22;47998;53.242;6.386;2024-02-23T08:19:58;4.90;99.90
51579;DHT22;47998;53.242;6.386;2024-02-23T08:22:24;4.90;99.90
51579;DHT22;47998;53.242;6.386;2024-02-23T08:24:51;4.80;99.90
51579;DHT22;47998;53.242;6.386;2024-02-23T08:27:16;4.90;99.90
51579;DHT22;47998;53.242;6.386;2024-02-23T08:29:42;5.00;99.90
51579;DHT22;47998;53.242;6.386;2024-02-23T08:32:08;5.00;99.90
51579;DHT22;47998;53.242;6.386;2024-02-23T08:34:34;5.00;99.90
51579;DHT22;47998;53.242;6.386;2024-02-23T08:37:01;5.00;99.90
51579;DHT22;47998;53.242;6.386;2024-02-23T08:39:27;5.00;99.90
51579;DHT22;47998;53.242;6.386;2024-02-23T08:41:53;4.90;99.90
51579;DHT22;47998;53.242;6.386;2024-02-23T08:44:19;5.00;99.90
51579;DHT22;47998;53.242;6.386;2024-02-23T08:46:44;5.00;99.90
51579;DHT22;47998;53.242;6.386;2024-02-23T08:49:10;5.00;99.90
51579;DHT22;47998;53.242;6.386;2024-02-23T08:51:36;4.90;99.90
51579;DHT22;47998;53.242;6.386;2024-02-23T08:54:02;5.00;99.90
51579;DHT22;47998;53.242;6.386;2024-02-23T08:56:30;5.00;99.90
51579;DHT22;47998;53.242;6.386;2024-02-23T08:58:56;5.00;99.90
51579;DHT22;47998;53.242;6.386;2024-02-23T09:01:21;5.10;99.90
51579;DHT22;47998;53.242;6.386;2024-02-23T09:03:47;5.10;99.90
51579;DHT22;47998;53.242;6.386;2024-02-23T09:06:13;5.10;99.90
51579;DHT22;47998;53.242;6.386;2024-02-23T09:08:39;5.20;99.90
51579;DHT22;47998;53.242;6.386;2024-02-23T09:11:06;5.30;99.90
51579;DHT22;47998;53.242;6.386;2024-02-23T09:13:32;5.50;99.90
51579;DHT22;47998;53.242;6.386;2024-02-23T09:15:58;5.40;99.90
51579;DHT22;47998;53.242;6.386;2024-02-23T09:18:23;5.30;99.90
51579;DHT22;47998;53.242;6.386;2024-02-23T09:20:49;5.40;99.90
51579;DHT22;47998;53.242;6.386;2024-02-23T09:23:15;5.40;99.90
51579;DHT22;47998;53.242;6.386;2024-02-23T09:25:40;5.60;99.90
51579;DHT22;47998;53.242;6.386;2024-02-23T09:28:07;5.50;99.90
51579;DHT22;47998;53.242;6.386;2024-02-23T09:30:33;5.50;99.90
51579;DHT22;47998;53.242;6.386;2024-02-23T09:32:58;5.50;99.90
51579;DHT22;47998;53.242;6.386;2024-02-23T09:35:24;5.50;99.90
51579;DHT22;47998;53.242;6.386;2024-02-23T09:37:50;5.50;99.90
51579;DHT22;47998;53.242;6.386;2024-02-23T09:40:16;5.50;99.90
51579;DHT22;47998;53.242;6.386;2024-02-23T09:42:42;5.50;99.90
51579;DHT22;47998;53.242;6.386;2024-02-23T09:45:08;5.60;99.90
51579;DHT22;47998;53.242;6.386;2024-02-23T09:47:36;5.60;99.90
51579;DHT22;47998;53.242;6.386;2024-02-23T09:50:04;5.70;99.90
51579;DHT22;47998;53.242;6.386;2024-02-23T09:52:32;5.80;99.90
51579;DHT22;47998;53.242;6.386;2024-02-23T09:54:58;6.00;99.90
51579;DHT22;47998;53.242;6.386;2024-02-23T09:57:24;6.10;99.90
51579;DHT22;47998;53.242;6.386;2024-02-23T09:59:50;6.20;99.90
51579;DHT22;47998;53.242;6.386;2024-02-23T10:02:17;6.30;99.90
51579;DHT22;47998;53.242;6.386;2024-02-23T10:04:43;6.50;99.90
51579;DHT22;47998;53.242;6.386;2024-02-23T10:07:09;6.50;99.90
51579;DHT22;47998;53.242;6.386;2024-02-23T10:09:35;6.70;99.90
51579;DHT22;47998;53.242;6.386;2024-02-23T10:12:02;7.00;99.90
51579;DHT22;47998;53.242;6.386;2024-02-23T10:14:28;7.00;99.90
51579;DHT22;47998;53.242;6.386;2024-02-23T10:16:54;6.90;99.90
51579;DHT22;47998;53.242;6.386;2024-02-23T10:19:21;6.90;99.90
51579;DHT22;47998;53.242;6.386;2024-02-23T10:21:47;6.60;99.90
51579;DHT22;47998;53.242;6.386;2024-02-23T10:24:18;6.40;99.90
51579;DHT22;47998;53.242;6.386;2024-02-23T10:26:44;6.30;99.90
51579;DHT22;47998;53.242;6.386;2024-02-23T10:29:10;6.00;99.90
51579;DHT22;47998;53.242;6.386;2024-02-23T10:31:36;5.80;99.90
51579;DHT22;47998;53.242;6.386;2024-02-23T10:34:09;5.70;99.90
51579;DHT22;47998;53.242;6.386;2024-02-23T10:36:41;5.60;99.90
51579;DHT22;47998;53.242;6.386;2024-02-23T10:39:11;5.70;99.90
51579;DHT22;47998;53.242;6.386;2024-02-23T10:41:46;5.80;99.90
51579;DHT22;47998;53.242;6.386;2024-02-23T10:44:12;6.10;99.90
51579;DHT22;47998;53.242;6.386;2024-02-23T10:46:39;6.20;99.90
51579;DHT22;47998;53.242;6.386;2024-02-23T10:49:07;6.20;99.90
51579;DHT22;47998;53.242;6.386;2024-02-23T10:51:33;6.20;99.90
51579;DHT22;47998;53.242;6.386;2024-02-23T10:54:00;6.10;99.90
51579;DHT22;47998;53.242;6.386;2024-02-23T10:56:26;6.10;99.90
51579;DHT22;47998;53.242;6.386;2024-02-23T10:58:52;6.20;99.90
51579;DHT22;47998;53.242;6.386;2024-02-23T11:01:20;6.20;99.90
51579;DHT22;47998;53.242;6.386;2024-02-23T11:03:46;6.10;99.90
51579;DHT22;47998;53.242;6.386;2024-02-23T11:06:16;5.80;99.90
51579;DHT22;47998;53.242;6.386;2024-02-23T11:08:46;5.80;99.90
51579;DHT22;47998;53.242;6.386;2024-02-23T11:11:15;5.80;99.90
51579;DHT22;47998;53.242;6.386;2024-02-23T11:13:43;5.80;99.90
51579;DHT22;47998;53.242;6.386;2024-02-23T11:16:09;5.80;99.90
51579;DHT22;47998;53.242;6.386;2024-02-23T11:18:36;5.80;99.90
51579;DHT22;47998;53.242;6.386;2024-02-23T11:21:04;5.80;99.90
51579;DHT22;47998;53.242;6.386;2024-02-23T11:23:47;5.60;99.90
51579;DHT22;47998;53.242;6.386;2024-02-23T11:26:16;5.50;99.90
51579;DHT22;47998;53.242;6.386;2024-02-23T11:28:52;5.60;99.90
51579;DHT22;47998;53.242;6.386;2024-02-23T11:31:21;5.70;99.90
51579;DHT22;47998;53.242;6.386;2024-02-23T11:33:54;5.70;99.90
51579;DHT22;47998;53.242;6.386;2024-02-23T11:36:31;5.80;99.90
51579;DHT22;47998;53.242;6.386;2024-02-23T11:38:59;5.80;99.90
51579;DHT22;47998;53.242;6.386;2024-02-23T11:41:26;5.80;99.90
51579;DHT22;47998;53.242;6.386;2024-02-23T11:43:53;5.80;99.90
51579;DHT22;47998;53.242;6.386;2024-02-23T11:46:19;5.90;99.90
51579;DHT22;47998;53.242;6.386;2024-02-23T11:48:46;5.90;99.90
51579;DHT22;47998;53.242;6.386;2024-02-23T11:51:13;6.00;99.90
51579;DHT22;47998;53.242;6.386;2024-02-23T11:53:40;6.00;99.90
51579;DHT22;47998;53.242;6.386;2024-02-23T11:56:06;6.00;99.90
51579;DHT22;47998;53.242;6.386;2024-02-23T11:58:33;6.10;99.90
51579;DHT22;47998;53.242;6.386;2024-02-23T12:01:00;6.10;99.90
51579;DHT22;47998;53.242;6.386;2024-02-23T12:03:28;6.10;99.90
51579;DHT22;47998;53.242;6.386;2024-02-23T12:06:01;6.20;99.90
51579;DHT22;47998;53.242;6.386;2024-02-23T12:08:30;6.20;99.90
51579;DHT22;47998;53.242;6.386;2024-02-23T12:10:58;6.20;99.90
51579;DHT22;47998;53.242;6.386;2024-02-23T12:13:26;6.20;99.90
51579;DHT22;47998;53.242;6.386;2024-02-23T12:15:53;6.20;99.90
51579;DHT22;47998;53.242;6.386;2024-02-23T12:18:21;6.20;99.90
51579;DHT22;47998;53.242;6.386;2024-02-23T12:20:49;6.30;99.90
51579;DHT22;47998;53.242;6.386;2024-02-23T12:23:15;6.40;99.90
51579;DHT22;47998;53.242;6.386;2024-02-23T12:25:51;6.30;99.90
51579;DHT22;47998;53.242;6.386;2024-02-23T12:28:18;6.30;99.90
51579;DHT22;47998;53.242;6.386;2024-02-23T12:30:44;6.30;99.90
51579;DHT22;47998;53.242;6.386;2024-02-23T12:33:15;6.30;99.90
51579;DHT22;47998;53.242;6.386;2024-02-23T12:35:41;6.30;99.90
51579;DHT22;47998;53.242;6.386;2024-02-23T12:38:07;6.20;99.90
51579;DHT22;47998;53.242;6.386;2024-02-23T12:40:32;6.20;99.90
51579;DHT22;47998;53.242;6.386;2024-02-23T12:42:58;6.20;99.90
51579;DHT22;47998;53.242;6.386;2024-02-23T12:45:24;6.30;99.90
51579;DHT22;47998;53.242;6.386;2024-02-23T12:47:50;6.30;99.90
51579;DHT22;47998;53.242;6.386;2024-02-23T12:50:15;6.30;99.90
51579;DHT22;47998;53.242;6.386;2024-02-23T12:52:42;6.20;99.90
51579;DHT22;47998;53.242;6.386;2024-02-23T12:55:08;6.20;99.90
51579;DHT22;47998;53.242;6.386;2024-02-23T12:57:34;6.30;99.90
51579;DHT22;47998;53.242;6.386;2024-02-23T13:00:00;6.30;99.90
51579;DHT22;47998;53.242;6.386;2024-02-23T13:02:26;6.30;99.90
51579;DHT22;47998;53.242;6.386;2024-02-23T13:04:51;6.30;99.90
51579;DHT22;47998;53.242;6.386;2024-02-23T13:07:17;6.50;99.90
51579;DHT22;47998;53.242;6.386;2024-02-23T13:09:44;6.60;99.90
51579;DHT22;47998;53.242;6.386;2024-02-23T13:12:09;6.80;99.90
51579;DHT22;47998;53.242;6.386;2024-02-23T13:14:35;6.50;99.90
51579;DHT22;47998;53.242;6.386;2024-02-23T13:17:01;6.40;99.90
51579;DHT22;47998;53.242;6.386;2024-02-23T13:19:27;6.40;99.90
51579;DHT22;47998;53.242;6.386;2024-02-23T13:21:52;6.30;99.90
51579;DHT22;47998;53.242;6.386;2024-02-23T13:24:18;6.30;99.90
51579;DHT22;47998;53.242;6.386;2024-02-23T13:26:44;6.30;99.90
51579;DHT22;47998;53.242;6.386;2024-02-23T13:29:10;6.40;99.90
51579;DHT22;47998;53.242;6.386;2024-02-23T13:31:36;6.50;99.90
51579;DHT22;47998;53.242;6.386;2024-02-23T13:34:03;6.50;99.90
51579;DHT22;47998;53.242;6.386;2024-02-23T13:36:29;6.50;99.90
51579;DHT22;47998;53.242;6.386;2024-02-23T13:38:55;6.30;99.90
51579;DHT22;47998;53.242;6.386;2024-02-23T13:41:20;6.20;99.90
51579;DHT22;47998;53.242;6.386;2024-02-23T13:43:46;6.00;99.90
51579;DHT22;47998;53.242;6.386;2024-02-23T13:46:12;5.90;99.90
51579;DHT22;47998;53.242;6.386;2024-02-23T13:48:37;5.90;99.90
51579;DHT22;47998;53.242;6.386;2024-02-23T13:51:04;5.90;99.90
51579;DHT22;47998;53.242;6.386;2024-02-23T13:53:31;6.10;99.90
51579;DHT22;47998;53.242;6.386;2024-02-23T13:55:58;6.20;99.90
51579;DHT22;47998;53.242;6.386;2024-02-23T13:58:24;6.20;99.90
51579;DHT22;47998;53.242;6.386;2024-02-23T14:00:50;6.10;99.90
51579;DHT22;47998;53.242;6.386;2024-02-23T14:03:17;6.10;99.90
51579;DHT22;47998;53.242;6.386;2024-02-23T14:05:47;6.10;99.90
51579;DHT22;47998;53.242;6.386;2024-02-23T14:08:13;5.70;99.90
51579;DHT22;47998;53.242;6.386;2024-02-23T14:10:38;5.40;99.90
51579;DHT22;47998;53.242;6.386;2024-02-23T14:13:05;5.00;99.90
51579;DHT22;47998;53.242;6.386;2024-02-23T14:15:31;4.40;99.90
51579;DHT22;47998;53.242;6.386;2024-02-23T14:17:57;4.10;99.90
51579;DHT22;47998;53.242;6.386;2024-02-23T14:20:23;3.80;99.90
51579;DHT22;47998;53.242;6.386;2024-02-23T14:22:49;3.60;99.90
51579;DHT22;47998;53.242;6.386;2024-02-23T14:25:15;3.70;99.90
51579;DHT22;47998;53.242;6.386;2024-02-23T14:27:41;3.70;99.90
51579;DHT22;47998;53.242;6.386;2024-02-23T14:30:08;3.60;99.90
51579;DHT22;47998;53.242;6.386;2024-02-23T14:32:34;3.80;99.90
51579;DHT22;47998;53.242;6.386;2024-02-23T14:35:02;3.90;99.90
51579;DHT22;47998;53.242;6.386;2024-02-23T14:37:29;4.10;99.90
51579;DHT22;47998;53.242;6.386;2024-02-23T14:39:54;4.20;99.90
51579;DHT22;47998;53.242;6.386;2024-02-23T14:42:20;4.40;99.90
51579;DHT22;47998;53.242;6.386;2024-02-23T14:44:46;4.60;99.90
51579;DHT22;47998;53.242;6.386;2024-02-23T14:47:12;4.70;99.90
51579;DHT22;47998;53.242;6.386;2024-02-23T14:49:38;4.80;99.90
51579;DHT22;47998;53.242;6.386;2024-02-23T14:52:04;4.80;99.90
51579;DHT22;47998;53.242;6.386;2024-02-23T14:54:30;5.00;99.90
51579;DHT22;47998;53.242;6.386;2024-02-23T14:56:56;5.30;99.90
51579;DHT22;47998;53.242;6.386;2024-02-23T14:59:21;5.50;99.90
51579;DHT22;47998;53.242;6.386;2024-02-23T15:01:47;5.40;99.90
51579;DHT22;47998;53.242;6.386;2024-02-23T15:04:13;5.30;99.90
51579;DHT22;47998;53.242;6.386;2024-02-23T15:06:38;5.30;99.90
51579;DHT22;47998;53.242;6.386;2024-02-23T15:09:04;5.40;99.90
51579;DHT22;47998;53.242;6.386;2024-02-23T15:11:31;5.50;99.90
51579;DHT22;47998;53.242;6.386;2024-02-23T15:13:57;5.40;99.90
51579;DHT22;47998;53.242;6.386;2024-02-23T15:16:27;5.40;99.90
51579;DHT22;47998;53.242;6.386;2024-02-23T15:18:53;5.30;99.90
51579;DHT22;47998;53.242;6.386;2024-02-23T15:21:19;5.20;99.90
51579;DHT22;47998;53.242;6.386;2024-02-23T15:23:45;5.30;99.90
51579;DHT22;47998;53.242;6.386;2024-02-23T15:26:11;5.10;99.90
51579;DHT22;47998;53.242;6.386;2024-02-23T15:28:37;5.20;99.90
51579;DHT22;47998;53.242;6.386;2024-02-23T15:31:04;5.10;99.90
51579;DHT22;47998;53.242;6.386;2024-02-23T15:33:30;5.10;99.90
51579;DHT22;47998;53.242;6.386;2024-02-23T15:35:56;5.00;99.90
51579;DHT22;47998;53.242;6.386;2024-02-23T15:38:21;5.10;99.90